Aktualne dane pomiarowe

Uwaga, wersja testowa! Automatyczne pobieranie danych za pomocą narzędzi lub skryptów to umożliwiających jest zabronione.

Dane meteo z obszaru Polski uzyskane na podstawie depesz SYNOP pobieranych co godzinę z NWS. Najedź myszką na symbol przedstawiony w tabeli, aby uzyskać informacje co do jego znaczenia. Prosimy pamiętać, że to testowa wersja strony, która jeszcze nie jest ukończona. Stworzono również jest krótki FAQ dotyczący korzystania z tej podstrony Anomalie temperatury w chwili obecnej odniesione są do okresu referencyjnego 1951-2016. Okres ten będzie później zmieniony na 1981-2010. Kliknij ikonę aby pobrać plik CSV. Kliknij ikonę aby wygenerować mapę synoptyczną dla danego terminu.

Wybierz Datę:    

        

Włodawa (12497)

Dane terminowe dla wybranej stacji. Kliknij datę, aby otrzymać dane z tego terminu dla wszystkich stacji.

TemperaturaZachmurzenieWiatrCiśnienieOpadyPogoda
 Data t td wb tx tn tg rh  Nt Nl Cl Cm Ch ws wd g1 g2 wx mslp ppp ch 24h 12h t ww ww w1 w2  
2019-07-07 23:00:00 12.4 6.0 8.7--- 6520.0wxwxwx4wx--41007.7 986.4 0.8---------
2019-07-07 22:00:00 13.1 6.0 9.0--- 6220.0wxwxwx4wx--41007.2 986.0 0.7---------
2019-07-07 21:00:00 12.7 5.8 8.7--- 6320.0wxwxwxwx3wx--31007.0 985.8 0.8---------
2019-07-07 20:00:00 12.8 5.7 8.7--- 6220.0wxwxwxwx3wx--31006.8 985.6 1.3---------
2019-07-07 19:00:00 14.9 5.7 9.8--- 5420.0wxwxwxwx3wx---1006.3 985.3 1.3---------
2019-07-07 18:00:00 18.4 5.6 11.4 22.1 16.7- 4320.0wxwxwxwxwx4wx---1005.8 985.0 1.0---wx-w1--
2019-07-07 17:00:00 19.8 5.4 12.0--- 3920.0wxwxwxwx6wx---1005.0 984.3 -0.3---------
2019-07-07 16:00:00 21.0 6.1 12.8--- 3820.0wxwxwx6wx---1004.6 984.0 -0.9---------
2019-07-07 15:00:00 20.8 11.7 15.2--- 5620.0wxwxwxwx5wx--51004.6 984.0 -0.9---wx-w1--
2019-07-07 14:00:00 19.2 12.5 14.9--- 6520.0wxwxwxwxwx6wx--61005.3 984.6 -0.5---wx---
2019-07-07 13:00:00 17.6 12.9 14.5--- 7420.0wxwxwx5wx---1005.7 984.9 0.3---wx---
2019-07-07 12:00:00 17.6 13.5 14.9--- 7720.0wxwxwx6wx--61005.7 984.9 0.8- 0.16wx---
2019-07-07 11:00:00 17.0 13.7 14.8--- 8120.0wxwxwx5wx---1006.0 985.1 1.3---wx-w1--
2019-07-07 10:00:00 18.6 14.3 15.7--- 7620.0wxwxwx5wx--51005.4 984.6 0.8---wx---
2019-07-07 09:00:00 20.6 13.1 15.8--- 6220.0wxwxwxwx5wx--51004.7 984.1 0.1---------
2019-07-07 08:00:00 20.8 13.5 16.1--- 6320.0wxwxwxwx4wx--41004.4 983.8 0.7---------
2019-07-07 07:00:00 19.0 13.6 15.5--- 7120.0wxwxwxwxwx2wx--21004.5 983.8 0.9---------
2019-07-07 06:00:00 17.8 14.1 15.3 18.6 14.7 14 7920.0wxwxwxwx1wx--11004.8 984.0 0.4 0.4 0.412wx-w1- 7.2
2019-07-07 05:00:00 16.0 13.7 14.4--- 8620.0wxwxwxwxwx1wx--11004.0 983.1 -0.7---------
2019-07-07 04:00:00 14.9 13.4 13.8--- 9120.0wxwxwxwx0---01003.9 982.9 -0.7---wx-w1--
2019-07-07 03:00:00 15.0 12.7 13.4--- 8620.0wxwxwx1wx--11004.6 983.6 -0.4---wx---
2019-07-07 02:00:00 15.3 12.8 13.6--- 8520.0wxwxwx3wx--31004.8 983.8 -0.9---wx---
2019-07-07 01:00:00 15.6 13.4 14.1--- 8720.0wxwxwx3wx---1004.6 983.6 -1.2---wx-w1--
2019-07-07 00:00:00 16.7 13.0 14.2--- 7920.0wxwxwx2wx--21004.9 984.0 -1.9--6wx-w1--
2019-07-06 23:00:00 16.5 12.8 14.0--- 7920.0wxwxwx2wx--21005.6 984.7 -1.6---------
2019-07-06 22:00:00 17.0 13.3 14.5--- 7920.0wxwxwx2wx--21005.7 984.8 -2.0---------
2019-07-06 21:00:00 17.0 13.5 14.6--- 8020.0wxwxwx2wx--21006.8 985.9 -1.2---wx-w1--
2019-07-06 20:00:00 17.2 14.3 15.2--- 8315.0wxwxwxwx1wx--11007.2 986.3 -1.0---wx-w1--
2019-07-06 19:00:00 17.5 13.8 15.0--- 7920.0wxwxwxwx1wx--11007.7 986.8 -0.7---wx---
2019-07-06 18:00:00 18.6 13.5 15.2 22.9 15.7- 7220.0wxwxwxwx2wx-1121007.9 987.1 -0.6--12wx---
2019-07-06 17:00:00 19.7 12.2 15.0--- 6220.0wxwxwxwx2wx--21008.0 987.3 -0.7---wx-w1--
2019-07-06 16:00:00 20.4 11.1 14.7--- 5520.0wxwxwxwx2wx--21008.2 987.5 -0.7---wx---
2019-07-06 15:00:00 21.0 10.8 14.9--- 5220.0wxwxwxwx5wx-1151008.3 987.7 -0.4---------
2019-07-06 14:00:00 21.2 10.7 14.9--- 5120.0wxwxwx6wx--61008.6 988.0 -0.4---------
2019-07-06 13:00:00 21.0 9.6 14.3--- 4820.0wxwxwx7wx-1171008.9 988.2 -0.6---------
2019-07-06 12:00:00 22.2 9.7 14.9--- 4520.0wxwxwxwx5wx-1351008.7 988.1 -1.2- 0.06------
2019-07-06 11:00:00 22.7 8.0 14.3--- 3920.0wxwxwxwxwx7wx121271008.9 988.4 -1.1---------
2019-07-06 10:00:00 20.7 8.0 13.5--- 4420.0wxwxwxwxwx6wx-1261009.5 988.8 -0.8---------
2019-07-06 09:00:00 20.1 8.1 13.2--- 4620.0wxwxwxwxwx6wx-1361010.0 989.3 -0.5---------
2019-07-06 08:00:00 19.0 7.7 12.6--- 4820.0wxwxwxwxwx8wx-981010.3 989.5 -0.3---------
2019-07-06 07:00:00 17.9 8.5 12.4--- 5420.0wxwxwxwxwx4wx--41010.5 989.6 0.0---------
2019-07-06 06:00:00 15.9 10.0 12.2 17.3 9.3 8 6820.0wxwxwxwxwx3wx--31010.9 989.8 0.2 0.1 0.012----- 1.7
2019-07-06 05:00:00 14.1 10.9 12.0--- 8120.0wxwxwxwx5wx--51011.0 989.8 0.2---------
2019-07-06 04:00:00 12.5 10.6 11.2--- 8820.0wxwxwxwx3wx--31010.9 989.6 -0.2---------
2019-07-06 03:00:00 9.6 8.8 9.0--- 9515.0wxwxwxwxwx2wx---1011.1 989.6 -0.3---------
2019-07-06 02:00:00 11.5 9.6 10.2--- 8820.0wx-wx4wx--41011.0 989.6 -0.2---------
2019-07-06 01:00:00 12.1 10.0 10.7--- 8720.0wx-wx4wx--41011.1 989.8 0.1---------
2019-07-06 00:00:00 12.5 10.0 10.8--- 8520.0wx-wx5wx-1151011.2 989.9 0.2- 0.06------
1.7 ms

 

Print Friendly, PDF & Email